Crescent Mills, CA (95934)

2:40 AM PDT on October 24, 2014 (GMT -0700)
Mt. Hough Estates | Change Station
CLOSE
Current Station
Personal Weather Station
Location: Greenville, CA
Elevation: 3550 ft
Nearby Weather Stations

Elev 3550 ft 40.12 °N, 120.90 °W | Updated 4 minutes ago

Partly Cloudy
Partly Cloudy
35.9 °F
Feels Like 36 °F
N
1.0
Wind Variable Wind from WNW
Gusts 2.0 mph

Today
High -- | Low -- °F
--% Chance of Precip.
Yesterday
High -- | Low -- °F
Precip. -- in
7:23 AM 6:10 PM
New Moon, 0% visible
Pressure 29.99 in
Visibility 10.0 miles
Clouds Clear
Windchill 36 °F
Dew Point 33 °F
Humidity 90%
Rainfall 0.00 in
Snow Depth Not available.
UV 0 out of 12
Pollen 2.50 out of 12
Air Quality Not available.
Flu Activity Sporadic
METAR KBLU 240852Z AUTO 14006KT 10SM CLR 11/01 A3013 RMK AO2 SLP156 T01060011 58001 $

More Conditions Fewer Conditions

Pressure 29.99 in
Visibility 10.0 miles
Clouds Clear
Windchill 36 °F
Dew Point 33 °F
Humidity 90%
Rainfall 0.00 in
Snow Depth Not available.
UV 0 out of 12
Pollen 2.50 out of 12
Air Quality Not available.
Flu Activity Sporadic
METAR KBLU 240852Z AUTO 14006KT 10SM CLR 11/01 A3013 RMK AO2 SLP156 T01060011 58001 $

More Conditions Fewer Conditions

10-Day Weather Forecast

Almanac

Astronomy

Oct. 24, 2014 Rise Set
Actual Time 7:23 AM PDT 6:10 PM PDT
Civil Twilight 6:56 AM PDT 6:38 PM PDT
Nautical Twilight 6:24 AM PDT 7:10 PM PDT
Astronomical Twilight 5:53 AM PDT 7:41 PM PDT
Moon 8:08 AM PDT 6:54 PM PDT
Length of Visible Light 11h 42m
Length of Day
10h 47m
Tomorrow will be 2m 26s shorter.
New Moon, 0% of the Moon is Illuminated
Today
New Moon
Oct 30
First Quarter
Nov 6
Full
Nov 14
Last Quarter
Nov 22
New

Today's Extremes

State Highs State Lows

Community

WunderPhotos

Upload Photos

1,764,513 photos uploaded!

WunderBlogs® & News

Nearby

Snow Depth

Station Depth Elevation
Independence Camp 0 in 7000 ft
CSS Lab 1 in 6900 ft
Squaw Valley 0 in 8200 ft
Tahoe City Cross 1 in 6750 ft
Adin Mountain 0 in 6200 ft

Earthquake Activity

City Distance Mag. Time & Date
Gerlach-Empire, Nevada 63 miles 2.5 7:16 AM PDT
2014-10-23
Minimum magnitude displayed is 2.5.

Coastal Water Temperatures

Place Temperature
No Stations Reporting

Nearby Weather Stations